sensor_id;sensor_type;location;lat;lon;timestamp;P1;durP1;ratioP1;P2;durP2;ratioP2
56136;SDS011;42008;52.934;5.884;2024-01-30T00:01:50;50.63;;;35.90;;
56136;SDS011;42008;52.934;5.884;2024-01-30T00:04:16;52.00;;;35.80;;
56136;SDS011;42008;52.934;5.884;2024-01-30T00:06:43;51.40;;;35.60;;
56136;SDS011;42008;52.934;5.884;2024-01-30T00:09:09;50.47;;;36.27;;
56136;SDS011;42008;52.934;5.884;2024-01-30T00:11:38;50.53;;;37.23;;
56136;SDS011;42008;52.934;5.884;2024-01-30T00:14:04;54.87;;;37.20;;
56136;SDS011;42008;52.934;5.884;2024-01-30T00:16:30;53.07;;;37.20;;
56136;SDS011;42008;52.934;5.884;2024-01-30T00:18:56;54.63;;;37.30;;
56136;SDS011;42008;52.934;5.884;2024-01-30T00:21:23;55.63;;;39.60;;
56136;SDS011;42008;52.934;5.884;2024-01-30T00:23:49;56.83;;;38.00;;
56136;SDS011;42008;52.934;5.884;2024-01-30T00:26:15;57.40;;;38.23;;
56136;SDS011;42008;52.934;5.884;2024-01-30T00:28:41;53.33;;;37.63;;
56136;SDS011;42008;52.934;5.884;2024-01-30T00:31:07;52.43;;;37.77;;
56136;SDS011;42008;52.934;5.884;2024-01-30T00:33:37;56.90;;;38.73;;
56136;SDS011;42008;52.934;5.884;2024-01-30T00:36:04;55.67;;;39.30;;
56136;SDS011;42008;52.934;5.884;2024-01-30T00:38:30;57.63;;;39.50;;
56136;SDS011;42008;52.934;5.884;2024-01-30T00:40:56;53.07;;;38.03;;
56136;SDS011;42008;52.934;5.884;2024-01-30T00:43:22;54.37;;;39.50;;
56136;SDS011;42008;52.934;5.884;2024-01-30T00:45:49;56.10;;;38.47;;
56136;SDS011;42008;52.934;5.884;2024-01-30T00:48:17;57.03;;;38.83;;
56136;SDS011;42008;52.934;5.884;2024-01-30T00:50:43;56.40;;;38.73;;
56136;SDS011;42008;52.934;5.884;2024-01-30T00:53:09;54.90;;;38.97;;
56136;SDS011;42008;52.934;5.884;2024-01-30T00:55:35;56.23;;;39.10;;
56136;SDS011;42008;52.934;5.884;2024-01-30T00:58:01;53.50;;;37.80;;
56136;SDS011;42008;52.934;5.884;2024-01-30T01:00:28;51.33;;;37.93;;
56136;SDS011;42008;52.934;5.884;2024-01-30T01:02:57;53.70;;;38.33;;
56136;SDS011;42008;52.934;5.884;2024-01-30T01:05:23;56.53;;;37.87;;
56136;SDS011;42008;52.934;5.884;2024-01-30T01:07:49;59.63;;;39.33;;
56136;SDS011;42008;52.934;5.884;2024-01-30T01:10:18;57.33;;;38.17;;
56136;SDS011;42008;52.934;5.884;2024-01-30T01:12:45;51.33;;;36.63;;
56136;SDS011;42008;52.934;5.884;2024-01-30T01:15:11;57.10;;;38.03;;
56136;SDS011;42008;52.934;5.884;2024-01-30T01:17:38;53.33;;;38.50;;
56136;SDS011;42008;52.934;5.884;2024-01-30T01:20:04;54.77;;;38.53;;
56136;SDS011;42008;52.934;5.884;2024-01-30T01:22:31;58.40;;;38.60;;
56136;SDS011;42008;52.934;5.884;2024-01-30T01:24:57;56.53;;;37.83;;
56136;SDS011;42008;52.934;5.884;2024-01-30T01:27:24;62.37;;;39.07;;
56136;SDS011;42008;52.934;5.884;2024-01-30T01:29:50;59.60;;;39.10;;
56136;SDS011;42008;52.934;5.884;2024-01-30T01:32:16;56.93;;;39.57;;
56136;SDS011;42008;52.934;5.884;2024-01-30T01:34:42;63.73;;;40.73;;
56136;SDS011;42008;52.934;5.884;2024-01-30T01:37:08;57.97;;;38.97;;
56136;SDS011;42008;52.934;5.884;2024-01-30T01:39:34;61.20;;;38.97;;
56136;SDS011;42008;52.934;5.884;2024-01-30T01:42:00;55.50;;;37.67;;
56136;SDS011;42008;52.934;5.884;2024-01-30T01:44:26;57.87;;;39.47;;
56136;SDS011;42008;52.934;5.884;2024-01-30T01:46:52;63.43;;;39.67;;
56136;SDS011;42008;52.934;5.884;2024-01-30T01:49:19;62.17;;;39.97;;
56136;SDS011;42008;52.934;5.884;2024-01-30T01:51:45;61.00;;;40.17;;
56136;SDS011;42008;52.934;5.884;2024-01-30T01:54:12;63.67;;;40.73;;
56136;SDS011;42008;52.934;5.884;2024-01-30T01:56:39;62.80;;;40.10;;
56136;SDS011;42008;52.934;5.884;2024-01-30T01:59:06;61.13;;;38.57;;
56136;SDS011;42008;52.934;5.884;2024-01-30T02:01:33;63.73;;;40.07;;
56136;SDS011;42008;52.934;5.884;2024-01-30T02:03:59;52.70;;;37.60;;
56136;SDS011;42008;52.934;5.884;2024-01-30T02:06:26;61.03;;;39.23;;
56136;SDS011;42008;52.934;5.884;2024-01-30T02:08:52;59.67;;;39.87;;
56136;SDS011;42008;52.934;5.884;2024-01-30T02:11:19;60.83;;;38.67;;
56136;SDS011;42008;52.934;5.884;2024-01-30T02:13:46;59.30;;;37.33;;
56136;SDS011;42008;52.934;5.884;2024-01-30T02:16:12;60.47;;;39.73;;
56136;SDS011;42008;52.934;5.884;2024-01-30T02:18:38;61.13;;;38.53;;
56136;SDS011;42008;52.934;5.884;2024-01-30T02:21:08;60.73;;;38.97;;
56136;SDS011;42008;52.934;5.884;2024-01-30T02:23:34;56.37;;;37.93;;
56136;SDS011;42008;52.934;5.884;2024-01-30T02:26:00;57.50;;;38.37;;
56136;SDS011;42008;52.934;5.884;2024-01-30T02:28:26;57.70;;;37.43;;
56136;SDS011;42008;52.934;5.884;2024-01-30T02:30:52;61.70;;;38.17;;
56136;SDS011;42008;52.934;5.884;2024-01-30T02:33:18;57.50;;;37.50;;
56136;SDS011;42008;52.934;5.884;2024-01-30T02:35:47;60.67;;;37.77;;
56136;SDS011;42008;52.934;5.884;2024-01-30T02:38:13;61.70;;;40.23;;
56136;SDS011;42008;52.934;5.884;2024-01-30T02:40:39;60.90;;;39.07;;
56136;SDS011;42008;52.934;5.884;2024-01-30T02:43:05;57.70;;;37.57;;
56136;SDS011;42008;52.934;5.884;2024-01-30T02:45:31;59.70;;;39.53;;
56136;SDS011;42008;52.934;5.884;2024-01-30T02:47:57;56.00;;;38.30;;
56136;SDS011;42008;52.934;5.884;2024-01-30T02:50:23;59.23;;;39.27;;
56136;SDS011;42008;52.934;5.884;2024-01-30T02:52:49;58.03;;;38.17;;
56136;SDS011;42008;52.934;5.884;2024-01-30T02:55:15;56.37;;;39.33;;
56136;SDS011;42008;52.934;5.884;2024-01-30T02:57:43;57.27;;;38.40;;
56136;SDS011;42008;52.934;5.884;2024-01-30T03:00:09;58.53;;;37.83;;
56136;SDS011;42008;52.934;5.884;2024-01-30T03:02:36;57.73;;;41.60;;
56136;SDS011;42008;52.934;5.884;2024-01-30T03:05:02;62.30;;;40.87;;
56136;SDS011;42008;52.934;5.884;2024-01-30T03:07:31;56.77;;;39.30;;
56136;SDS011;42008;52.934;5.884;2024-01-30T03:09:57;55.40;;;37.50;;
56136;SDS011;42008;52.934;5.884;2024-01-30T03:12:23;58.20;;;39.70;;
56136;SDS011;42008;52.934;5.884;2024-01-30T03:14:49;52.07;;;35.60;;
56136;SDS011;42008;52.934;5.884;2024-01-30T03:17:15;58.47;;;38.23;;
56136;SDS011;42008;52.934;5.884;2024-01-30T03:19:41;51.30;;;37.03;;
56136;SDS011;42008;52.934;5.884;2024-01-30T03:22:07;51.37;;;36.90;;
56136;SDS011;42008;52.934;5.884;2024-01-30T03:24:33;51.40;;;36.13;;
56136;SDS011;42008;52.934;5.884;2024-01-30T03:26:59;52.20;;;37.10;;
56136;SDS011;42008;52.934;5.884;2024-01-30T03:29:26;54.17;;;34.80;;
56136;SDS011;42008;52.934;5.884;2024-01-30T03:31:52;49.33;;;34.73;;
56136;SDS011;42008;52.934;5.884;2024-01-30T03:34:18;52.13;;;35.10;;
56136;SDS011;42008;52.934;5.884;2024-01-30T03:36:44;51.03;;;33.70;;
56136;SDS011;42008;52.934;5.884;2024-01-30T03:39:10;50.27;;;33.57;;
56136;SDS011;42008;52.934;5.884;2024-01-30T03:41:36;49.43;;;33.83;;
56136;SDS011;42008;52.934;5.884;2024-01-30T03:44:02;50.40;;;34.57;;
56136;SDS011;42008;52.934;5.884;2024-01-30T03:46:28;48.23;;;34.27;;
56136;SDS011;42008;52.934;5.884;2024-01-30T03:48:54;50.07;;;35.10;;
56136;SDS011;42008;52.934;5.884;2024-01-30T03:51:20;44.50;;;31.83;;
56136;SDS011;42008;52.934;5.884;2024-01-30T03:53:46;49.67;;;32.90;;
56136;SDS011;42008;52.934;5.884;2024-01-30T03:56:12;47.60;;;32.37;;
56136;SDS011;42008;52.934;5.884;2024-01-30T03:58:39;47.20;;;32.60;;
56136;SDS011;42008;52.934;5.884;2024-01-30T04:01:05;52.17;;;33.40;;
56136;SDS011;42008;52.934;5.884;2024-01-30T04:03:30;44.73;;;32.23;;
56136;SDS011;42008;52.934;5.884;2024-01-30T04:05:56;46.73;;;33.60;;
56136;SDS011;42008;52.934;5.884;2024-01-30T04:08:22;48.10;;;33.43;;
56136;SDS011;42008;52.934;5.884;2024-01-30T04:10:48;46.90;;;32.43;;
56136;SDS011;42008;52.934;5.884;2024-01-30T04:13:14;48.90;;;33.80;;
56136;SDS011;42008;52.934;5.884;2024-01-30T04:15:40;42.33;;;29.83;;
56136;SDS011;42008;52.934;5.884;2024-01-30T04:18:06;45.83;;;30.37;;
56136;SDS011;42008;52.934;5.884;2024-01-30T04:20:33;44.83;;;31.10;;
56136;SDS011;42008;52.934;5.884;2024-01-30T04:22:58;43.23;;;31.17;;
56136;SDS011;42008;52.934;5.884;2024-01-30T04:25:25;43.17;;;30.17;;
56136;SDS011;42008;52.934;5.884;2024-01-30T04:27:51;41.53;;;29.07;;
56136;SDS011;42008;52.934;5.884;2024-01-30T04:30:17;44.77;;;29.37;;
56136;SDS011;42008;52.934;5.884;2024-01-30T04:32:43;36.07;;;28.03;;
56136;SDS011;42008;52.934;5.884;2024-01-30T04:35:09;36.23;;;28.20;;
56136;SDS011;42008;52.934;5.884;2024-01-30T04:37:35;40.60;;;28.57;;
56136;SDS011;42008;52.934;5.884;2024-01-30T04:40:02;36.50;;;26.77;;
56136;SDS011;42008;52.934;5.884;2024-01-30T04:42:28;39.87;;;28.47;;
56136;SDS011;42008;52.934;5.884;2024-01-30T04:44:54;38.83;;;28.20;;
56136;SDS011;42008;52.934;5.884;2024-01-30T04:47:20;37.97;;;27.27;;
56136;SDS011;42008;52.934;5.884;2024-01-30T04:49:46;38.80;;;27.97;;
56136;SDS011;42008;52.934;5.884;2024-01-30T04:52:12;40.30;;;28.80;;
56136;SDS011;42008;52.934;5.884;2024-01-30T04:54:38;40.97;;;27.37;;
56136;SDS011;42008;52.934;5.884;2024-01-30T04:57:04;38.20;;;25.73;;
56136;SDS011;42008;52.934;5.884;2024-01-30T04:59:34;36.33;;;26.53;;
56136;SDS011;42008;52.934;5.884;2024-01-30T05:02:01;36.30;;;26.30;;
56136;SDS011;42008;52.934;5.884;2024-01-30T05:04:27;38.13;;;26.23;;
56136;SDS011;42008;52.934;5.884;2024-01-30T05:06:53;37.17;;;26.83;;
56136;SDS011;42008;52.934;5.884;2024-01-30T05:09:19;32.47;;;24.83;;
56136;SDS011;42008;52.934;5.884;2024-01-30T05:11:46;32.50;;;23.70;;
56136;SDS011;42008;52.934;5.884;2024-01-30T05:14:12;33.77;;;24.63;;
56136;SDS011;42008;52.934;5.884;2024-01-30T05:16:40;34.37;;;24.63;;
56136;SDS011;42008;52.934;5.884;2024-01-30T05:19:06;32.93;;;23.23;;
56136;SDS011;42008;52.934;5.884;2024-01-30T05:21:32;32.67;;;22.73;;
56136;SDS011;42008;52.934;5.884;2024-01-30T05:23:59;35.87;;;23.93;;
56136;SDS011;42008;52.934;5.884;2024-01-30T05:26:25;29.57;;;23.60;;
56136;SDS011;42008;52.934;5.884;2024-01-30T05:28:51;35.53;;;25.17;;
56136;SDS011;42008;52.934;5.884;2024-01-30T05:31:17;33.83;;;22.97;;
56136;SDS011;42008;52.934;5.884;2024-01-30T05:33:43;31.63;;;22.53;;
56136;SDS011;42008;52.934;5.884;2024-01-30T05:36:11;32.47;;;22.20;;
56136;SDS011;42008;52.934;5.884;2024-01-30T05:38:38;34.03;;;24.03;;
56136;SDS011;42008;52.934;5.884;2024-01-30T05:41:04;33.13;;;22.90;;
56136;SDS011;42008;52.934;5.884;2024-01-30T05:43:31;33.83;;;24.27;;
56136;SDS011;42008;52.934;5.884;2024-01-30T05:45:56;33.43;;;23.33;;
56136;SDS011;42008;52.934;5.884;2024-01-30T05:48:23;34.37;;;22.73;;
56136;SDS011;42008;52.934;5.884;2024-01-30T05:50:49;31.97;;;22.40;;
56136;SDS011;42008;52.934;5.884;2024-01-30T05:53:15;31.13;;;22.67;;
56136;SDS011;42008;52.934;5.884;2024-01-30T05:55:41;32.23;;;22.83;;
56136;SDS011;42008;52.934;5.884;2024-01-30T05:58:07;31.17;;;22.13;;
56136;SDS011;42008;52.934;5.884;2024-01-30T06:00:33;30.57;;;22.40;;
56136;SDS011;42008;52.934;5.884;2024-01-30T06:02:59;29.40;;;20.97;;
56136;SDS011;42008;52.934;5.884;2024-01-30T06:05:24;32.73;;;23.20;;
56136;SDS011;42008;52.934;5.884;2024-01-30T06:07:50;29.07;;;20.47;;
56136;SDS011;42008;52.934;5.884;2024-01-30T06:10:16;30.60;;;21.20;;
56136;SDS011;42008;52.934;5.884;2024-01-30T06:12:42;29.63;;;21.93;;
56136;SDS011;42008;52.934;5.884;2024-01-30T06:15:09;32.63;;;22.97;;
56136;SDS011;42008;52.934;5.884;2024-01-30T06:17:35;30.63;;;21.97;;
56136;SDS011;42008;52.934;5.884;2024-01-30T06:20:01;30.37;;;20.83;;
56136;SDS011;42008;52.934;5.884;2024-01-30T06:22:27;28.43;;;21.27;;
56136;SDS011;42008;52.934;5.884;2024-01-30T06:24:53;32.30;;;21.23;;
56136;SDS011;42008;52.934;5.884;2024-01-30T06:27:19;31.77;;;20.67;;
56136;SDS011;42008;52.934;5.884;2024-01-30T06:29:45;28.53;;;20.47;;
56136;SDS011;42008;52.934;5.884;2024-01-30T06:32:11;29.17;;;21.47;;
56136;SDS011;42008;52.934;5.884;2024-01-30T06:34:38;29.97;;;19.83;;
56136;SDS011;42008;52.934;5.884;2024-01-30T06:37:05;28.63;;;19.93;;
56136;SDS011;42008;52.934;5.884;2024-01-30T06:39:31;25.90;;;19.00;;
56136;SDS011;42008;52.934;5.884;2024-01-30T06:41:57;30.77;;;19.80;;
56136;SDS011;42008;52.934;5.884;2024-01-30T06:44:23;32.27;;;19.70;;
56136;SDS011;42008;52.934;5.884;2024-01-30T06:46:49;29.00;;;20.60;;
56136;SDS011;42008;52.934;5.884;2024-01-30T06:49:15;30.47;;;20.50;;
56136;SDS011;42008;52.934;5.884;2024-01-30T06:51:41;28.67;;;19.03;;
56136;SDS011;42008;52.934;5.884;2024-01-30T06:54:07;27.67;;;19.47;;
56136;SDS011;42008;52.934;5.884;2024-01-30T06:56:33;26.50;;;19.00;;
56136;SDS011;42008;52.934;5.884;2024-01-30T06:59:00;26.13;;;19.17;;
56136;SDS011;42008;52.934;5.884;2024-01-30T07:01:29;27.17;;;17.13;;
56136;SDS011;42008;52.934;5.884;2024-01-30T07:03:56;22.67;;;17.17;;
56136;SDS011;42008;52.934;5.884;2024-01-30T07:06:22;30.73;;;18.77;;
56136;SDS011;42008;52.934;5.884;2024-01-30T07:08:51;24.97;;;19.10;;
56136;SDS011;42008;52.934;5.884;2024-01-30T07:11:20;25.50;;;17.80;;
56136;SDS011;42008;52.934;5.884;2024-01-30T07:13:47;28.00;;;17.37;;
56136;SDS011;42008;52.934;5.884;2024-01-30T07:16:14;24.27;;;17.60;;
56136;SDS011;42008;52.934;5.884;2024-01-30T07:18:40;28.17;;;18.40;;
56136;SDS011;42008;52.934;5.884;2024-01-30T07:21:06;29.87;;;18.27;;
56136;SDS011;42008;52.934;5.884;2024-01-30T07:23:32;27.73;;;17.93;;
56136;SDS011;42008;52.934;5.884;2024-01-30T07:26:00;22.90;;;18.13;;
56136;SDS011;42008;52.934;5.884;2024-01-30T07:28:26;23.17;;;17.47;;
56136;SDS011;42008;52.934;5.884;2024-01-30T07:30:52;27.30;;;18.23;;
56136;SDS011;42008;52.934;5.884;2024-01-30T07:33:18;24.33;;;17.53;;
56136;SDS011;42008;52.934;5.884;2024-01-30T07:35:45;28.60;;;18.10;;
56136;SDS011;42008;52.934;5.884;2024-01-30T07:38:11;24.60;;;17.87;;
56136;SDS011;42008;52.934;5.884;2024-01-30T07:40:37;28.67;;;18.37;;
56136;SDS011;42008;52.934;5.884;2024-01-30T07:43:03;25.83;;;17.27;;
56136;SDS011;42008;52.934;5.884;2024-01-30T07:45:29;23.13;;;16.63;;
56136;SDS011;42008;52.934;5.884;2024-01-30T07:47:58;20.67;;;16.67;;
56136;SDS011;42008;52.934;5.884;2024-01-30T07:50:27;22.47;;;16.70;;
56136;SDS011;42008;52.934;5.884;2024-01-30T07:52:53;22.57;;;17.00;;
56136;SDS011;42008;52.934;5.884;2024-01-30T07:55:20;25.73;;;16.90;;
56136;SDS011;42008;52.934;5.884;2024-01-30T07:57:52;23.00;;;16.47;;
56136;SDS011;42008;52.934;5.884;2024-01-30T08:00:19;23.20;;;16.63;;
56136;SDS011;42008;52.934;5.884;2024-01-30T08:02:54;24.97;;;16.90;;
56136;SDS011;42008;52.934;5.884;2024-01-30T08:05:20;23.10;;;15.50;;
56136;SDS011;42008;52.934;5.884;2024-01-30T08:07:47;29.77;;;17.10;;
56136;SDS011;42008;52.934;5.884;2024-01-30T08:10:14;24.33;;;17.50;;
56136;SDS011;42008;52.934;5.884;2024-01-30T08:12:40;22.53;;;17.03;;
56136;SDS011;42008;52.934;5.884;2024-01-30T08:15:06;25.80;;;16.40;;
56136;SDS011;42008;52.934;5.884;2024-01-30T08:17:33;21.73;;;16.07;;
56136;SDS011;42008;52.934;5.884;2024-01-30T08:19:59;24.17;;;16.60;;
56136;SDS011;42008;52.934;5.884;2024-01-30T08:22:25;25.37;;;17.00;;
56136;SDS011;42008;52.934;5.884;2024-01-30T08:24:51;25.00;;;15.53;;
56136;SDS011;42008;52.934;5.884;2024-01-30T08:27:17;25.47;;;15.57;;
56136;SDS011;42008;52.934;5.884;2024-01-30T08:29:44;23.77;;;16.57;;
56136;SDS011;42008;52.934;5.884;2024-01-30T08:32:10;24.07;;;16.63;;
56136;SDS011;42008;52.934;5.884;2024-01-30T08:34:36;22.70;;;17.23;;
56136;SDS011;42008;52.934;5.884;2024-01-30T08:37:02;23.13;;;16.37;;
56136;SDS011;42008;52.934;5.884;2024-01-30T08:39:28;25.90;;;16.43;;
56136;SDS011;42008;52.934;5.884;2024-01-30T08:41:55;23.33;;;15.57;;
56136;SDS011;42008;52.934;5.884;2024-01-30T08:44:21;27.97;;;16.80;;
56136;SDS011;42008;52.934;5.884;2024-01-30T08:46:47;24.03;;;16.07;;
56136;SDS011;42008;52.934;5.884;2024-01-30T08:49:16;24.83;;;16.23;;
56136;SDS011;42008;52.934;5.884;2024-01-30T08:51:42;23.07;;;16.20;;
56136;SDS011;42008;52.934;5.884;2024-01-30T08:54:08;23.93;;;16.33;;
56136;SDS011;42008;52.934;5.884;2024-01-30T08:56:34;27.47;;;16.50;;
56136;SDS011;42008;52.934;5.884;2024-01-30T08:59:00;22.83;;;16.73;;
56136;SDS011;42008;52.934;5.884;2024-01-30T09:01:26;26.57;;;16.77;;
56136;SDS011;42008;52.934;5.884;2024-01-30T09:03:52;24.93;;;17.40;;
56136;SDS011;42008;52.934;5.884;2024-01-30T09:06:18;28.67;;;16.67;;
56136;SDS011;42008;52.934;5.884;2024-01-30T09:08:44;24.87;;;15.77;;
56136;SDS011;42008;52.934;5.884;2024-01-30T09:11:14;22.33;;;15.90;;
56136;SDS011;42008;52.934;5.884;2024-01-30T09:13:41;23.30;;;15.37;;
56136;SDS011;42008;52.934;5.884;2024-01-30T09:16:07;27.43;;;16.60;;
56136;SDS011;42008;52.934;5.884;2024-01-30T09:18:33;25.37;;;15.60;;
56136;SDS011;42008;52.934;5.884;2024-01-30T09:20:59;23.23;;;15.13;;
56136;SDS011;42008;52.934;5.884;2024-01-30T09:23:28;24.27;;;15.33;;
56136;SDS011;42008;52.934;5.884;2024-01-30T09:25:55;22.83;;;15.13;;
56136;SDS011;42008;52.934;5.884;2024-01-30T09:28:21;25.73;;;15.30;;
56136;SDS011;42008;52.934;5.884;2024-01-30T09:30:47;25.87;;;15.30;;
56136;SDS011;42008;52.934;5.884;2024-01-30T09:33:13;25.20;;;15.83;;
56136;SDS011;42008;52.934;5.884;2024-01-30T09:35:39;28.07;;;16.73;;
56136;SDS011;42008;52.934;5.884;2024-01-30T09:38:05;31.00;;;17.30;;
56136;SDS011;42008;52.934;5.884;2024-01-30T09:40:31;28.10;;;15.07;;
56136;SDS011;42008;52.934;5.884;2024-01-30T09:42:57;27.37;;;15.13;;
56136;SDS011;42008;52.934;5.884;2024-01-30T09:45:27;22.07;;;14.63;;
56136;SDS011;42008;52.934;5.884;2024-01-30T09:47:53;26.53;;;14.50;;
56136;SDS011;42008;52.934;5.884;2024-01-30T09:50:19;25.00;;;15.27;;
56136;SDS011;42008;52.934;5.884;2024-01-30T09:52:46;27.60;;;14.90;;
56136;SDS011;42008;52.934;5.884;2024-01-30T09:55:12;25.97;;;14.50;;
56136;SDS011;42008;52.934;5.884;2024-01-30T09:57:38;26.40;;;14.43;;
56136;SDS011;42008;52.934;5.884;2024-01-30T10:00:05;24.63;;;14.20;;
56136;SDS011;42008;52.934;5.884;2024-01-30T10:02:34;25.87;;;13.90;;
56136;SDS011;42008;52.934;5.884;2024-01-30T10:05:00;22.13;;;13.00;;
56136;SDS011;42008;52.934;5.884;2024-01-30T10:07:26;22.13;;;13.53;;
56136;SDS011;42008;52.934;5.884;2024-01-30T10:09:52;20.00;;;12.87;;
56136;SDS011;42008;52.934;5.884;2024-01-30T10:12:20;27.43;;;14.13;;
56136;SDS011;42008;52.934;5.884;2024-01-30T10:14:46;25.73;;;13.30;;
56136;SDS011;42008;52.934;5.884;2024-01-30T10:17:12;26.27;;;14.63;;
56136;SDS011;42008;52.934;5.884;2024-01-30T10:19:39;22.10;;;14.13;;
56136;SDS011;42008;52.934;5.884;2024-01-30T10:22:05;28.87;;;13.50;;
56136;SDS011;42008;52.934;5.884;2024-01-30T10:24:32;24.53;;;13.47;;
56136;SDS011;42008;52.934;5.884;2024-01-30T10:26:59;20.73;;;13.33;;
56136;SDS011;42008;52.934;5.884;2024-01-30T10:29:25;20.73;;;13.27;;
56136;SDS011;42008;52.934;5.884;2024-01-30T10:31:58;25.10;;;13.60;;
56136;SDS011;42008;52.934;5.884;2024-01-30T10:34:24;22.33;;;13.00;;
56136;SDS011;42008;52.934;5.884;2024-01-30T10:36:51;24.10;;;12.13;;
56136;SDS011;42008;52.934;5.884;2024-01-30T10:39:20;20.97;;;11.30;;
56136;SDS011;42008;52.934;5.884;2024-01-30T10:41:47;27.37;;;12.20;;
56136;SDS011;42008;52.934;5.884;2024-01-30T10:44:14;22.37;;;12.27;;
56136;SDS011;42008;52.934;5.884;2024-01-30T10:46:43;29.23;;;11.37;;
56136;SDS011;42008;52.934;5.884;2024-01-30T10:49:10;24.30;;;10.63;;
56136;SDS011;42008;52.934;5.884;2024-01-30T10:51:38;23.93;;;11.43;;
56136;SDS011;42008;52.934;5.884;2024-01-30T10:54:04;23.87;;;9.70;;
56136;SDS011;42008;52.934;5.884;2024-01-30T10:56:30;19.53;;;8.93;;
56136;SDS011;42008;52.934;5.884;2024-01-30T10:58:58;21.03;;;9.23;;
56136;SDS011;42008;52.934;5.884;2024-01-30T11:01:24;21.90;;;8.63;;
56136;SDS011;42008;52.934;5.884;2024-01-30T11:03:51;21.23;;;7.50;;
56136;SDS011;42008;52.934;5.884;2024-01-30T11:06:18;14.90;;;4.20;;
56136;SDS011;42008;52.934;5.884;2024-01-30T11:08:59;12.80;;;3.47;;
56136;SDS011;42008;52.934;5.884;2024-01-30T11:11:25;7.83;;;2.33;;
56136;SDS011;42008;52.934;5.884;2024-01-30T11:13:51;7.97;;;2.13;;
56136;SDS011;42008;52.934;5.884;2024-01-30T11:16:17;6.87;;;1.60;;
56136;SDS011;42008;52.934;5.884;2024-01-30T11:18:49;10.30;;;1.60;;
56136;SDS011;42008;52.934;5.884;2024-01-30T11:21:16;9.60;;;1.60;;
56136;SDS011;42008;52.934;5.884;2024-01-30T11:23:42;6.80;;;1.80;;
56136;SDS011;42008;52.934;5.884;2024-01-30T11:26:11;6.77;;;1.83;;
56136;SDS011;42008;52.934;5.884;2024-01-30T11:28:37;10.40;;;1.87;;
56136;SDS011;42008;52.934;5.884;2024-01-30T11:31:04;8.80;;;1.60;;
56136;SDS011;42008;52.934;5.884;2024-01-30T11:33:32;8.37;;;1.93;;
56136;SDS011;42008;52.934;5.884;2024-01-30T11:35:59;8.27;;;1.90;;
56136;SDS011;42008;52.934;5.884;2024-01-30T11:38:25;8.83;;;1.70;;
56136;SDS011;42008;52.934;5.884;2024-01-30T11:40:52;10.60;;;2.13;;
56136;SDS011;42008;52.934;5.884;2024-01-30T11:43:18;12.73;;;2.70;;
56136;SDS011;42008;52.934;5.884;2024-01-30T11:45:44;12.87;;;2.33;;
56136;SDS011;42008;52.934;5.884;2024-01-30T11:48:13;10.10;;;1.83;;
56136;SDS011;42008;52.934;5.884;2024-01-30T11:50:40;10.43;;;2.13;;
56136;SDS011;42008;52.934;5.884;2024-01-30T11:53:06;13.73;;;2.23;;
56136;SDS011;42008;52.934;5.884;2024-01-30T11:55:33;13.10;;;2.87;;
56136;SDS011;42008;52.934;5.884;2024-01-30T11:58:01;11.33;;;2.70;;
56136;SDS011;42008;52.934;5.884;2024-01-30T12:00:27;11.73;;;2.30;;
56136;SDS011;42008;52.934;5.884;2024-01-30T12:02:55;12.67;;;2.30;;
56136;SDS011;42008;52.934;5.884;2024-01-30T12:05:22;11.07;;;2.30;;
56136;SDS011;42008;52.934;5.884;2024-01-30T12:07:48;9.47;;;2.70;;
56136;SDS011;42008;52.934;5.884;2024-01-30T12:10:14;8.93;;;2.57;;
56136;SDS011;42008;52.934;5.884;2024-01-30T12:12:41;7.43;;;2.10;;
56136;SDS011;42008;52.934;5.884;2024-01-30T12:15:08;7.93;;;2.30;;
56136;SDS011;42008;52.934;5.884;2024-01-30T12:17:34;9.20;;;2.50;;
56136;SDS011;42008;52.934;5.884;2024-01-30T12:22:31;8.73;;;2.20;;
56136;SDS011;42008;52.934;5.884;2024-01-30T12:24:57;6.57;;;2.33;;
56136;SDS011;42008;52.934;5.884;2024-01-30T12:27:23;7.13;;;1.80;;
56136;SDS011;42008;52.934;5.884;2024-01-30T12:29:55;7.03;;;2.40;;
56136;SDS011;42008;52.934;5.884;2024-01-30T12:32:22;8.30;;;2.08;;
56136;SDS011;42008;52.934;5.884;2024-01-30T12:34:48;6.63;;;2.00;;
56136;SDS011;42008;52.934;5.884;2024-01-30T12:37:14;8.90;;;2.13;;
56136;SDS011;42008;52.934;5.884;2024-01-30T12:39:47;8.87;;;2.20;;
56136;SDS011;42008;52.934;5.884;2024-01-30T12:42:13;10.07;;;2.00;;
56136;SDS011;42008;52.934;5.884;2024-01-30T12:44:40;7.13;;;1.60;;
56136;SDS011;42008;52.934;5.884;2024-01-30T12:47:08;6.90;;;1.90;;
56136;SDS011;42008;52.934;5.884;2024-01-30T12:49:35;7.50;;;1.63;;
56136;SDS011;42008;52.934;5.884;2024-01-30T12:52:01;6.03;;;1.53;;
56136;SDS011;42008;52.934;5.884;2024-01-30T12:54:27;10.77;;;1.77;;
56136;SDS011;42008;52.934;5.884;2024-01-30T12:56:53;8.90;;;2.07;;
56136;SDS011;42008;52.934;5.884;2024-01-30T12:59:21;5.93;;;1.40;;
56136;SDS011;42008;52.934;5.884;2024-01-30T13:01:47;10.33;;;1.90;;
56136;SDS011;42008;52.934;5.884;2024-01-30T13:04:13;7.07;;;1.50;;
56136;SDS011;42008;52.934;5.884;2024-01-30T13:06:40;8.07;;;1.30;;
56136;SDS011;42008;52.934;5.884;2024-01-30T13:09:06;5.97;;;1.43;;
56136;SDS011;42008;52.934;5.884;2024-01-30T13:11:32;13.07;;;2.80;;
56136;SDS011;42008;52.934;5.884;2024-01-30T13:13:59;11.73;;;2.50;;
56136;SDS011;42008;52.934;5.884;2024-01-30T13:16:25;6.13;;;1.27;;
56136;SDS011;42008;52.934;5.884;2024-01-30T13:18:51;7.17;;;1.40;;
56136;SDS011;42008;52.934;5.884;2024-01-30T13:21:17;8.23;;;1.90;;
56136;SDS011;42008;52.934;5.884;2024-01-30T13:23:43;7.80;;;2.07;;
56136;SDS011;42008;52.934;5.884;2024-01-30T13:26:09;11.60;;;2.17;;
56136;SDS011;42008;52.934;5.884;2024-01-30T13:28:35;11.53;;;2.87;;
56136;SDS011;42008;52.934;5.884;2024-01-30T13:31:01;7.80;;;2.53;;
56136;SDS011;42008;52.934;5.884;2024-01-30T13:33:27;12.13;;;2.53;;
56136;SDS011;42008;52.934;5.884;2024-01-30T13:35:53;15.63;;;2.63;;
56136;SDS011;42008;52.934;5.884;2024-01-30T13:38:19;10.67;;;2.57;;
56136;SDS011;42008;52.934;5.884;2024-01-30T13:40:45;9.27;;;2.60;;
56136;SDS011;42008;52.934;5.884;2024-01-30T13:43:11;11.63;;;2.93;;
56136;SDS011;42008;52.934;5.884;2024-01-30T13:45:37;13.43;;;3.00;;
56136;SDS011;42008;52.934;5.884;2024-01-30T13:48:03;13.33;;;3.60;;
56136;SDS011;42008;52.934;5.884;2024-01-30T13:50:29;11.13;;;3.00;;
56136;SDS011;42008;52.934;5.884;2024-01-30T13:52:58;14.30;;;3.70;;
56136;SDS011;42008;52.934;5.884;2024-01-30T13:55:24;13.70;;;3.67;;
56136;SDS011;42008;52.934;5.884;2024-01-30T13:57:50;14.30;;;4.23;;
56136;SDS011;42008;52.934;5.884;2024-01-30T14:00:16;16.40;;;4.33;;
56136;SDS011;42008;52.934;5.884;2024-01-30T14:02:43;20.97;;;5.20;;
56136;SDS011;42008;52.934;5.884;2024-01-30T14:05:09;15.03;;;4.77;;
56136;SDS011;42008;52.934;5.884;2024-01-30T14:07:38;17.77;;;4.37;;
56136;SDS011;42008;52.934;5.884;2024-01-30T14:10:05;13.13;;;4.70;;
56136;SDS011;42008;52.934;5.884;2024-01-30T14:12:31;11.83;;;4.40;;
56136;SDS011;42008;52.934;5.884;2024-01-30T14:14:57;16.77;;;5.77;;
56136;SDS011;42008;52.934;5.884;2024-01-30T14:17:23;26.00;;;6.83;;
56136;SDS011;42008;52.934;5.884;2024-01-30T14:19:49;17.23;;;5.83;;
56136;SDS011;42008;52.934;5.884;2024-01-30T14:22:15;21.23;;;7.20;;
56136;SDS011;42008;52.934;5.884;2024-01-30T14:24:41;23.60;;;8.47;;